Portada
METAR-TAF:

METAR-TAF

Aeroports :

Cuenca, Equador

latitud: 02-53-22S, longitud: 078-59-04W, altitud: 2532 m

Observació

L'informe es va fer fa 1 hora i 3 minuts, a les 18:00 UTC
Vent 6 kt del Est/Nord-Est
Temperatura 24°C
Humitat 44%
Pressió 1022 hPa
Visibilitat 10 km o més
Núvols disperses a una alçada de 4000 ft

METAR: SECU 181800Z 06006KT 9999 SCT040 24/11 Q1022

Hora: 14:03 (19:03 UTC)


TAF: manca

Observacions i pronòstics meteorològics de més de 4000 aeroports (METAR i TAF).

Les estacions disponibles són els punts grocs i vermells al mapa.

Posi el ratolí al punt desitjat per veure el nom de l'estació.

Feu clic per veure les observacions i els pronòstics meteorològics.

Per canviar el mapa: feu clic els botons verds amb una creu de color negre per apropar; al botó verd amb un guió per allunyar la imatge; o en les fletxes verdes per a mapes adjacents.


METAR-TAF: